createdAt,value
2018-08-13T00:01:41.604Z,23.29
2018-08-13T00:05:06.984Z,23.27
2018-08-13T00:08:31.640Z,23.14
2018-08-13T00:11:56.292Z,22.99
2018-08-13T00:15:21.055Z,23.13
2018-08-13T00:18:45.817Z,23.10
2018-08-13T00:22:10.517Z,23.18
2018-08-13T00:25:35.450Z,22.91
2018-08-13T00:29:00.105Z,22.38
2018-08-13T00:32:24.789Z,22.27
2018-08-13T00:35:49.430Z,22.49
2018-08-13T00:39:14.428Z,23.26
2018-08-13T00:42:39.110Z,22.65
2018-08-13T00:46:03.778Z,22.43
2018-08-13T00:49:28.482Z,22.39
2018-08-13T00:52:53.235Z,22.79
2018-08-13T00:56:17.900Z,23.00
2018-08-13T00:59:42.598Z,23.11
2018-08-13T01:03:08.165Z,23.09
2018-08-13T01:06:32.844Z,23.00
2018-08-13T01:09:57.511Z,23.24
2018-08-13T01:13:22.151Z,23.28
2018-08-13T01:16:46.943Z,22.55
2018-08-13T01:20:13.436Z,22.25
2018-08-13T01:23:38.095Z,22.27
2018-08-13T01:27:02.775Z,22.74
2018-08-13T01:30:27.461Z,23.08
2018-08-13T01:33:52.098Z,22.97
2018-08-13T01:37:16.799Z,23.18
2018-08-13T01:40:41.443Z,23.20
2018-08-13T01:44:06.397Z,22.68
2018-08-13T01:47:31.023Z,23.10
2018-08-13T01:50:55.730Z,23.01
2018-08-13T01:54:20.585Z,22.62
2018-08-13T01:57:45.207Z,21.90
2018-08-13T02:01:09.922Z,21.47
2018-08-13T02:04:34.614Z,22.32
2018-08-13T02:07:59.288Z,21.51
2018-08-13T02:11:24.000Z,20.95
2018-08-13T02:14:48.729Z,20.94
2018-08-13T02:18:13.334Z,21.00
2018-08-13T02:21:38.094Z,21.18
2018-08-13T02:25:02.807Z,22.66
2018-08-13T02:28:27.448Z,22.70
2018-08-13T02:31:52.102Z,22.86
2018-08-13T02:35:16.778Z,22.80
2018-08-13T02:38:41.703Z,22.56
2018-08-13T02:42:06.414Z,22.47
2018-08-13T02:45:31.056Z,21.99
2018-08-13T02:48:55.774Z,21.47
2018-08-13T02:52:20.399Z,21.49
2018-08-13T02:55:45.086Z,21.28
2018-08-13T02:59:09.824Z,21.22
2018-08-13T03:02:34.466Z,21.93
2018-08-13T03:05:59.104Z,20.70
2018-08-13T03:09:23.764Z,21.00
2018-08-13T03:12:48.464Z,20.50
2018-08-13T03:16:13.129Z,20.69
2018-08-13T03:19:37.868Z,20.68
2018-08-13T03:23:02.565Z,21.85
2018-08-13T03:26:27.250Z,20.95
2018-08-13T03:29:51.968Z,20.88
2018-08-13T03:33:16.743Z,20.31
2018-08-13T03:36:41.482Z,19.89
2018-08-13T03:40:09.690Z,19.93
2018-08-13T03:43:34.445Z,19.93
2018-08-13T03:46:59.152Z,19.55
2018-08-13T03:50:23.912Z,19.50
2018-08-13T03:53:48.754Z,19.64
2018-08-13T03:57:13.435Z,19.63
2018-08-13T04:00:38.136Z,19.94
2018-08-13T04:04:02.947Z,19.85
2018-08-13T04:07:27.670Z,20.82
2018-08-13T04:10:52.389Z,20.39
2018-08-13T04:14:17.242Z,20.63
2018-08-13T04:17:42.207Z,20.67
2018-08-13T04:21:07.700Z,22.17
2018-08-13T04:24:32.464Z,21.52
2018-08-13T04:27:57.270Z,22.23
2018-08-13T04:31:21.942Z,22.26
2018-08-13T04:34:46.587Z,22.26
2018-08-13T04:38:11.252Z,21.38
2018-08-13T04:41:35.960Z,22.18
2018-08-13T04:45:00.709Z,21.68
2018-08-13T04:48:25.372Z,22.26
2018-08-13T04:51:50.040Z,21.77
2018-08-13T04:55:14.718Z,22.38
2018-08-13T04:58:39.379Z,22.46
2018-08-13T05:02:04.079Z,22.21
2018-08-13T05:05:28.704Z,22.42
2018-08-13T05:08:53.345Z,22.10
2018-08-13T05:12:18.966Z,22.75
2018-08-13T05:15:43.607Z,22.81
2018-08-13T05:19:08.352Z,22.95
2018-08-13T05:22:33.112Z,22.97
2018-08-13T05:25:57.770Z,23.02
2018-08-13T05:29:22.430Z,23.11
2018-08-13T05:32:47.279Z,23.08
2018-08-13T05:36:11.976Z,23.07
2018-08-13T05:39:36.705Z,23.26
2018-08-13T05:43:01.409Z,23.33
2018-08-13T05:46:26.114Z,23.53
2018-08-13T05:49:50.805Z,23.45
2018-08-13T05:53:15.571Z,23.49
2018-08-13T05:56:40.308Z,23.52
2018-08-13T06:00:07.752Z,23.54
2018-08-13T06:03:32.465Z,23.52
2018-08-13T06:06:57.198Z,23.57
2018-08-13T06:10:21.925Z,23.57
2018-08-13T06:13:46.743Z,23.61
2018-08-13T06:17:11.386Z,23.55
2018-08-13T06:20:36.053Z,23.49
2018-08-13T06:24:00.759Z,23.42
2018-08-13T06:27:25.511Z,23.42
2018-08-13T06:30:50.217Z,23.50
2018-08-13T06:34:14.942Z,23.60
2018-08-13T06:37:39.771Z,23.67
2018-08-13T06:41:04.484Z,23.67
2018-08-13T06:44:29.123Z,23.67
2018-08-13T06:47:53.825Z,23.49
2018-08-13T06:51:18.524Z,23.39
2018-08-13T06:54:43.349Z,23.42
2018-08-13T06:58:08.072Z,23.43
2018-08-13T07:01:32.789Z,23.24
2018-08-13T07:04:57.685Z,23.11
2018-08-13T07:08:22.419Z,23.00
2018-08-13T07:11:47.119Z,23.01
2018-08-13T07:15:12.199Z,23.00
2018-08-13T07:18:36.873Z,23.15
2018-08-13T07:22:01.656Z,23.14
2018-08-13T07:25:26.358Z,23.24
2018-08-13T07:28:51.163Z,23.38
2018-08-13T07:32:15.821Z,23.10
2018-08-13T07:35:40.587Z,23.12
2018-08-13T07:39:09.030Z,23.12
2018-08-13T07:42:33.676Z,23.04
2018-08-13T07:45:58.345Z,23.35
2018-08-13T07:49:23.021Z,23.29
2018-08-13T07:52:47.693Z,23.38
2018-08-13T07:56:12.395Z,23.56
2018-08-13T07:59:37.105Z,23.84
2018-08-13T08:03:01.838Z,23.86
2018-08-13T08:06:26.576Z,23.97
2018-08-13T08:09:51.313Z,23.95
2018-08-13T08:13:16.100Z,24.07
2018-08-13T08:16:40.860Z,24.28
2018-08-13T08:20:06.573Z,24.35
2018-08-13T08:23:31.351Z,24.29
2018-08-13T08:26:56.150Z,24.75
2018-08-13T08:30:20.946Z,24.64
2018-08-13T08:33:45.783Z,24.91
2018-08-13T08:37:10.471Z,24.88
2018-08-13T08:40:35.445Z,24.85
2018-08-13T08:44:00.060Z,25.11
2018-08-13T08:47:24.831Z,25.01
2018-08-13T08:50:49.545Z,25.39
2018-08-13T08:54:14.297Z,25.01
2018-08-13T08:57:39.071Z,24.82
2018-08-13T09:01:03.810Z,25.03
2018-08-13T09:04:28.464Z,24.93
2018-08-13T09:07:53.237Z,24.75
2018-08-13T09:11:17.947Z,24.75
2018-08-13T09:14:42.671Z,24.84
2018-08-13T09:18:24.803Z,24.84
2018-08-13T09:21:54.122Z,24.78
2018-08-13T09:25:36.327Z,24.50
2018-08-13T09:30:16.743Z,24.81
2018-08-13T09:33:58.462Z,24.57
2018-08-13T09:37:23.154Z,24.42
2018-08-13T09:40:47.861Z,24.49
2018-08-13T09:44:12.549Z,24.53
2018-08-13T09:47:38.070Z,24.59
2018-08-13T09:54:37.159Z,24.42
2018-08-13T09:58:01.987Z,24.42
2018-08-13T10:01:26.765Z,24.18
2018-08-13T10:04:51.553Z,24.30
2018-08-13T10:08:16.296Z,24.34
2018-08-13T10:11:41.016Z,24.10
2018-08-13T10:15:07.543Z,24.22
2018-08-13T10:18:32.238Z,24.27
2018-08-13T10:21:57.005Z,24.08
2018-08-13T10:25:21.737Z,24.21
2018-08-13T10:28:46.410Z,23.94
2018-08-13T10:32:11.175Z,24.18
2018-08-13T10:35:35.876Z,24.09
2018-08-13T10:39:00.563Z,23.96
2018-08-13T10:42:25.466Z,24.08
2018-08-13T10:45:51.137Z,24.07
2018-08-13T10:49:15.811Z,23.91
2018-08-13T10:52:40.976Z,23.95
2018-08-13T10:56:06.010Z,23.63
2018-08-13T10:59:30.669Z,23.74
2018-08-13T11:02:55.475Z,23.86
2018-08-13T11:06:20.151Z,23.63
2018-08-13T11:09:44.958Z,23.49
2018-08-13T11:13:09.685Z,23.21
2018-08-13T11:16:34.511Z,23.04
2018-08-13T11:19:59.282Z,22.56
2018-08-13T11:23:24.053Z,22.83
2018-08-13T11:26:48.761Z,22.76
2018-08-13T11:30:17.117Z,22.80
2018-08-13T11:33:42.013Z,22.53
2018-08-13T11:37:06.769Z,23.24
2018-08-13T11:40:31.446Z,23.43
2018-08-13T11:43:56.151Z,23.27
2018-08-13T11:47:20.843Z,23.55
2018-08-13T11:50:45.566Z,23.45
2018-08-13T11:54:10.216Z,23.67
2018-08-13T11:57:35.428Z,23.11
2018-08-13T12:01:00.180Z,23.46
2018-08-13T12:04:24.895Z,23.65
2018-08-13T12:07:49.784Z,23.99
2018-08-13T12:11:14.470Z,24.09
2018-08-13T12:14:39.179Z,24.26
2018-08-13T12:18:04.145Z,24.08
2018-08-13T12:21:29.468Z,24.07
2018-08-13T12:24:54.172Z,24.33
2018-08-13T12:28:18.898Z,24.46
2018-08-13T12:31:43.690Z,24.16
2018-08-13T12:35:08.519Z,24.38
2018-08-13T12:38:33.262Z,24.22
2018-08-13T12:41:57.972Z,24.22
2018-08-13T12:45:22.767Z,24.05
2018-08-13T12:48:47.489Z,24.00
2018-08-13T12:52:12.314Z,24.31
2018-08-13T12:55:37.060Z,24.04
2018-08-13T12:59:01.716Z,24.03
2018-08-13T13:02:26.378Z,24.12
2018-08-13T13:05:51.064Z,24.31
2018-08-13T13:09:15.783Z,24.15
2018-08-13T13:12:41.135Z,23.99
2018-08-13T13:16:05.868Z,24.16
2018-08-13T13:19:30.595Z,24.13
2018-08-13T13:22:55.294Z,24.13
2018-08-13T13:26:20.031Z,24.13
2018-08-13T13:29:44.669Z,24.09
2018-08-13T13:33:09.365Z,24.23
2018-08-13T13:36:33.991Z,24.15
2018-08-13T13:39:58.608Z,24.00
2018-08-13T13:43:23.413Z,24.27
2018-08-13T13:46:48.053Z,24.42
2018-08-13T13:50:15.436Z,24.47
2018-08-13T13:53:40.075Z,24.18
2018-08-13T13:57:04.815Z,24.47
2018-08-13T14:00:29.419Z,24.22
2018-08-13T14:03:54.102Z,24.39
2018-08-13T14:07:19.385Z,24.34
2018-08-13T14:10:44.033Z,24.26
2018-08-13T14:14:09.657Z,24.59
2018-08-13T14:17:34.397Z,24.48
2018-08-13T14:20:59.065Z,24.31
2018-08-13T14:24:23.697Z,24.24
2018-08-13T14:27:48.448Z,24.07
2018-08-13T14:31:13.048Z,24.20
2018-08-13T14:34:37.739Z,23.95
2018-08-13T14:38:02.403Z,24.03
2018-08-13T14:41:27.107Z,23.90
2018-08-13T14:44:51.811Z,23.86
2018-08-13T14:48:16.565Z,23.74
2018-08-13T14:51:41.214Z,23.83
2018-08-13T14:55:06.492Z,23.80
2018-08-13T14:58:31.189Z,23.99
2018-08-13T15:01:55.978Z,23.87
2018-08-13T15:05:20.639Z,23.79
2018-08-13T15:08:45.285Z,23.80
2018-08-13T15:12:10.044Z,23.88
2018-08-13T15:15:34.745Z,23.85
2018-08-13T15:18:59.479Z,23.92
2018-08-13T15:22:24.187Z,23.93
2018-08-13T15:25:48.843Z,23.99
2018-08-13T15:29:13.546Z,23.98
2018-08-13T15:32:38.265Z,24.08
2018-08-13T15:36:03.213Z,24.01
2018-08-13T15:39:27.883Z,24.01
2018-08-13T15:42:52.579Z,23.99
2018-08-13T15:46:17.503Z,24.02
2018-08-13T15:49:42.150Z,24.27
2018-08-13T15:53:06.956Z,24.29
2018-08-13T15:56:31.706Z,24.15
2018-08-13T15:59:56.493Z,24.11
2018-08-13T16:03:21.197Z,24.07
2018-08-13T16:06:46.073Z,24.16
2018-08-13T16:10:13.697Z,24.26
2018-08-13T16:13:38.381Z,24.33
2018-08-13T16:17:03.099Z,24.56
2018-08-13T16:20:27.819Z,24.25
2018-08-13T16:23:52.427Z,24.31
2018-08-13T16:27:17.142Z,24.32
2018-08-13T16:30:41.938Z,24.22
2018-08-13T16:34:06.748Z,24.16
2018-08-13T16:37:31.387Z,24.31
2018-08-13T16:40:56.043Z,24.89
2018-08-13T16:44:20.773Z,25.18
2018-08-13T16:47:45.545Z,25.58
2018-08-13T16:51:10.272Z,25.63
2018-08-13T16:54:35.060Z,25.33
2018-08-13T16:58:00.732Z,24.85
2018-08-13T17:01:25.475Z,24.93
2018-08-13T17:04:50.227Z,25.02
2018-08-13T17:08:15.077Z,24.92
2018-08-13T17:11:39.694Z,24.63
2018-08-13T17:15:05.037Z,24.60
2018-08-13T17:18:29.751Z,24.49
2018-08-13T17:21:54.620Z,24.45
2018-08-13T17:25:19.355Z,24.40
2018-08-13T17:28:44.107Z,23.79
2018-08-13T17:32:08.893Z,23.26
2018-08-13T17:35:35.351Z,21.70
2018-08-13T17:39:00.175Z,21.90
2018-08-13T17:42:24.813Z,20.87
2018-08-13T17:45:49.592Z,20.52
2018-08-13T17:49:14.267Z,21.92
2018-08-13T17:52:40.456Z,20.94
2018-08-13T17:56:05.236Z,22.01
2018-08-13T17:59:29.902Z,23.27
2018-08-13T18:02:54.642Z,22.10
2018-08-13T18:06:19.487Z,21.59
2018-08-13T18:09:44.198Z,22.30
2018-08-13T18:13:09.918Z,23.16
2018-08-13T18:16:34.706Z,22.18
2018-08-13T18:19:59.427Z,23.25
2018-08-13T18:23:24.084Z,23.10
2018-08-13T18:26:48.718Z,22.00
2018-08-13T18:30:20.408Z,22.47
2018-08-13T18:33:45.064Z,21.13
2018-08-13T18:37:09.900Z,20.49
2018-08-13T18:40:35.310Z,20.68
2018-08-13T18:44:00.031Z,20.28
2018-08-13T18:47:24.755Z,19.74
2018-08-13T18:50:49.465Z,19.45
2018-08-13T18:54:14.178Z,19.94
2018-08-13T18:57:38.881Z,19.74
2018-08-13T19:01:03.686Z,19.76
2018-08-13T19:04:28.443Z,20.89
2018-08-13T19:07:53.397Z,20.09
2018-08-13T19:11:19.125Z,19.50
2018-08-13T19:14:43.853Z,19.76
2018-08-13T19:18:08.519Z,19.38
2018-08-13T19:21:33.350Z,19.15
2018-08-13T19:24:58.072Z,19.80
2018-08-13T19:28:23.321Z,19.71
2018-08-13T19:31:47.977Z,19.66
2018-08-13T19:35:12.754Z,19.48
2018-08-13T19:38:37.520Z,20.36
2018-08-13T19:42:02.175Z,19.36
2018-08-13T19:45:26.866Z,19.56
2018-08-13T19:48:51.585Z,19.55
2018-08-13T19:52:16.256Z,22.27
2018-08-13T19:55:40.977Z,20.27
2018-08-13T19:59:05.621Z,21.05
2018-08-13T20:02:30.307Z,19.95
2018-08-13T20:05:55.082Z,19.38
2018-08-13T20:09:19.821Z,19.63
2018-08-13T20:12:45.325Z,19.23
2018-08-13T20:16:10.280Z,20.15
2018-08-13T20:19:35.048Z,19.86
2018-08-13T20:22:59.705Z,21.05
2018-08-13T20:26:24.439Z,21.35
2018-08-13T20:29:49.185Z,19.50
2018-08-13T20:33:13.846Z,20.20
2018-08-13T20:36:39.495Z,19.48
2018-08-13T20:40:04.256Z,20.74
2018-08-13T20:43:28.936Z,22.09
2018-08-13T20:46:53.672Z,22.44
2018-08-13T20:50:21.748Z,21.71
2018-08-13T20:53:46.500Z,22.37
2018-08-13T20:57:11.284Z,22.22
2018-08-13T21:00:36.033Z,22.34
2018-08-13T21:04:00.773Z,22.02
2018-08-13T21:07:25.418Z,22.50
2018-08-13T21:10:50.068Z,22.24
2018-08-13T21:14:14.769Z,21.98
2018-08-13T21:17:39.697Z,22.41
2018-08-13T21:21:04.441Z,22.46
2018-08-13T21:24:29.248Z,22.49
2018-08-13T21:27:54.087Z,22.35
2018-08-13T21:31:18.793Z,21.74
2018-08-13T21:34:44.135Z,21.97
2018-08-13T21:38:08.929Z,21.66
2018-08-13T21:41:33.708Z,21.06
2018-08-13T21:44:58.609Z,21.33
2018-08-13T21:48:23.402Z,22.67
2018-08-13T21:51:48.168Z,22.44
2018-08-13T21:55:12.853Z,22.08
2018-08-13T21:58:37.556Z,22.32
2018-08-13T22:02:02.409Z,22.34
2018-08-13T22:05:27.206Z,22.24
2018-08-13T22:08:51.917Z,21.85
2018-08-13T22:12:17.498Z,21.91
2018-08-13T22:15:42.209Z,22.34
2018-08-13T22:19:07.780Z,22.19
2018-08-13T22:22:32.441Z,21.82
2018-08-13T22:25:57.239Z,21.74
2018-08-13T22:29:21.986Z,22.25
2018-08-13T22:32:46.694Z,22.06
2018-08-13T22:36:11.528Z,22.14
2018-08-13T22:39:36.134Z,22.25
2018-08-13T22:43:00.965Z,22.39
2018-08-13T22:46:25.629Z,21.81
2018-08-13T22:49:51.301Z,22.13
2018-08-13T22:53:15.968Z,22.15
2018-08-13T22:56:41.271Z,21.35
2018-08-13T23:00:08.833Z,22.04
2018-08-13T23:03:33.597Z,21.68
2018-08-13T23:06:59.046Z,21.53
2018-08-13T23:10:24.851Z,22.13
2018-08-13T23:13:49.639Z,22.00
2018-08-13T23:17:14.347Z,20.39
2018-08-13T23:20:39.328Z,20.34
2018-08-13T23:24:03.996Z,20.96
2018-08-13T23:27:28.725Z,20.42
2018-08-13T23:30:53.434Z,21.73
2018-08-13T23:34:18.190Z,22.23
2018-08-13T23:37:43.399Z,21.91
2018-08-13T23:41:08.373Z,21.49
2018-08-13T23:44:33.081Z,21.44
2018-08-13T23:47:57.899Z,21.71
2018-08-13T23:51:22.607Z,21.88
2018-08-13T23:54:47.284Z,21.62
2018-08-13T23:58:13.905Z,22.10
